This is the latest recevied weather packets stored in our database for station/object KB1YTR-1. If no packets are shown the sender has not sent any weather packets the latest 1 day(s).
| Time | Temp. | Humidity | Pressure | Rain* | Wind** | Luminosity | Snow |
|---|---|---|---|---|---|---|---|
| 1778023716 | 3.89° C | 57% | 1009.5 hPa | 0 mm | 2.68 m/s, 326° | - | - |
| 1778022992 | 3.89° C | 56% | 1009.5 hPa | 0 mm | 2.68 m/s, 265° | - | - |
| 1778022147 | 4.44° C | 55% | 1009.7 hPa | 0 mm | 6.71 m/s, 279° | - | - |
| 1778021247 | 3.89° C | 56% | 1009.5 hPa | 0 mm | 3.13 m/s, 299° | - | - |
| 1778020527 | 3.89° C | 55% | 1009.2 hPa | 0 mm | 4.02 m/s, 285° | - | - |
| 1778019797 | 4.44° C | 54% | 1009.4 hPa | 0 mm | 3.58 m/s, 285° | - | - |
| 1778018927 | 3.89° C | 56% | 1009.3 hPa | 0 mm | 3.13 m/s, 274° | - | - |
| 1778018032 | 5° C | 54% | 1009.3 hPa | 0 mm | 5.36 m/s, 274° | - | - |
| 1778017237 | 4.44° C | 54% | 1009.2 hPa | 0 mm | 1.79 m/s, 244° | - | - |
| 1778016417 | 4.44° C | 54% | 1009.2 hPa | 0 mm | 2.68 m/s, 288° | - | - |
| 1778015521 | 3.89° C | 56% | 1009.3 hPa | 0 mm | 4.47 m/s, 293° | - | - |
| 1778014667 | 5° C | 54% | 1009.2 hPa | 0 mm | 4.92 m/s, 288° | - | - |
| 1778013817 | 3.89° C | 57% | 1009 hPa | 0 mm | 6.71 m/s, 293° | - | - |
| 1778013092 | 3.89° C | 57% | 1009.3 hPa | 0 mm | 3.58 m/s, 268° | - | - |
| 1778012258 | 3.33° C | 57% | 1009.3 hPa | 0 mm | 4.47 m/s, 295° | - | - |
| 1778011407 | 3.89° C | 57% | 1009.2 hPa | 0 mm | 1.34 m/s, 293° | - | - |
| 1778010663 | 3.89° C | 57% | 1009.1 hPa | 0 mm | 2.68 m/s, 298° | - | - |
| 1778009772 | 3.89° C | 58% | 1009.2 hPa | 0 mm | 0.45 m/s, 325° | - | - |
| 1778008872 | 3.89° C | 59% | 1009.1 hPa | 0 mm | 1.79 m/s, 308° | - | - |
| 1778008017 | 3.33° C | 58% | 1009.1 hPa | 0 mm | 2.68 m/s, 342° | - | - |
| 1778007167 | 3.33° C | 58% | 1009 hPa | 0 mm | 1.79 m/s, 311° | - | - |
| 1778006442 | 3.33° C | 58% | 1008.9 hPa | 0 mm | 5.36 m/s, 279° | - | - |
| 1778005715 | 2.78° C | 59% | 1008.9 hPa | 0 mm | 2.68 m/s, 273° | - | - |
| 1778004862 | 2.78° C | 59% | 1009 hPa | 0 mm | 3.13 m/s, 278° | - | - |
| 1778004027 | 2.22° C | 60% | 1008.9 hPa | 0 mm | 3.58 m/s, 277° | - | - |
* Rain latest hour (hover to see other rain measurements)
** Current wind speed in m/s (hover to see current wind gust speed)